sensor_id;sensor_type;location;lat;lon;timestamp;P1;durP1;ratioP1;P2;durP2;ratioP2
32918;SDS011;19280;42.646;21.150;2022-11-15T00:02:13;101.10;;;51.78;;
32918;SDS011;19280;42.646;21.150;2022-11-15T00:04:39;76.57;;;41.03;;
32918;SDS011;19280;42.646;21.150;2022-11-15T00:07:05;57.85;;;29.85;;
32918;SDS011;19280;42.646;21.150;2022-11-15T00:09:31;69.45;;;36.90;;
32918;SDS011;19280;42.646;21.150;2022-11-15T00:11:57;61.55;;;34.42;;
32918;SDS011;19280;42.646;21.150;2022-11-15T00:14:23;62.00;;;35.90;;
32918;SDS011;19280;42.646;21.150;2022-11-15T00:16:49;68.15;;;35.55;;
32918;SDS011;19280;42.646;21.150;2022-11-15T00:19:16;73.35;;;41.33;;
32918;SDS011;19280;42.646;21.150;2022-11-15T00:21:42;70.25;;;38.97;;
32918;SDS011;19280;42.646;21.150;2022-11-15T00:24:08;86.13;;;42.42;;
32918;SDS011;19280;42.646;21.150;2022-11-15T00:26:34;75.65;;;39.42;;
32918;SDS011;19280;42.646;21.150;2022-11-15T00:29:00;72.88;;;41.17;;
32918;SDS011;19280;42.646;21.150;2022-11-15T00:31:26;79.85;;;38.95;;
32918;SDS011;19280;42.646;21.150;2022-11-15T00:33:52;67.65;;;37.28;;
32918;SDS011;19280;42.646;21.150;2022-11-15T00:36:18;67.05;;;32.78;;
32918;SDS011;19280;42.646;21.150;2022-11-15T00:38:44;54.42;;;31.63;;
32918;SDS011;19280;42.646;21.150;2022-11-15T00:41:10;59.88;;;29.70;;
32918;SDS011;19280;42.646;21.150;2022-11-15T00:43:37;54.90;;;29.10;;
32918;SDS011;19280;42.646;21.150;2022-11-15T00:46:05;54.22;;;28.48;;
32918;SDS011;19280;42.646;21.150;2022-11-15T00:48:33;55.08;;;27.98;;
32918;SDS011;19280;42.646;21.150;2022-11-15T00:50:59;55.47;;;30.58;;
32918;SDS011;19280;42.646;21.150;2022-11-15T00:53:25;59.97;;;34.33;;
32918;SDS011;19280;42.646;21.150;2022-11-15T00:55:52;63.45;;;33.00;;
32918;SDS011;19280;42.646;21.150;2022-11-15T00:58:18;63.70;;;35.30;;
32918;SDS011;19280;42.646;21.150;2022-11-15T01:00:44;68.57;;;38.58;;
32918;SDS011;19280;42.646;21.150;2022-11-15T01:03:10;74.78;;;39.50;;
32918;SDS011;19280;42.646;21.150;2022-11-15T01:05:37;73.55;;;34.05;;
32918;SDS011;19280;42.646;21.150;2022-11-15T01:08:03;62.42;;;32.28;;
32918;SDS011;19280;42.646;21.150;2022-11-15T01:10:29;73.22;;;39.10;;
32918;SDS011;19280;42.646;21.150;2022-11-15T01:12:55;78.20;;;40.95;;
32918;SDS011;19280;42.646;21.150;2022-11-15T01:15:22;71.97;;;41.28;;
32918;SDS011;19280;42.646;21.150;2022-11-15T01:17:49;72.53;;;39.97;;
32918;SDS011;19280;42.646;21.150;2022-11-15T01:20:15;75.82;;;40.55;;
32918;SDS011;19280;42.646;21.150;2022-11-15T01:22:41;81.35;;;43.08;;
32918;SDS011;19280;42.646;21.150;2022-11-15T01:25:07;82.07;;;41.55;;
32918;SDS011;19280;42.646;21.150;2022-11-15T01:27:33;66.32;;;38.17;;
32918;SDS011;19280;42.646;21.150;2022-11-15T01:29:59;78.88;;;41.40;;
32918;SDS011;19280;42.646;21.150;2022-11-15T01:32:25;65.80;;;38.25;;
32918;SDS011;19280;42.646;21.150;2022-11-15T01:34:51;67.70;;;36.78;;
32918;SDS011;19280;42.646;21.150;2022-11-15T01:37:17;69.20;;;38.15;;
32918;SDS011;19280;42.646;21.150;2022-11-15T01:39:44;67.05;;;36.50;;
32918;SDS011;19280;42.646;21.150;2022-11-15T01:42:13;62.60;;;36.03;;
32918;SDS011;19280;42.646;21.150;2022-11-15T01:44:49;64.63;;;37.10;;
32918;SDS011;19280;42.646;21.150;2022-11-15T01:47:17;68.63;;;36.45;;
32918;SDS011;19280;42.646;21.150;2022-11-15T01:52:24;65.13;;;35.78;;
32918;SDS011;19280;42.646;21.150;2022-11-15T01:54:52;67.78;;;37.90;;
32918;SDS011;19280;42.646;21.150;2022-11-15T01:57:19;71.72;;;37.80;;
32918;SDS011;19280;42.646;21.150;2022-11-15T01:59:45;66.13;;;36.85;;
32918;SDS011;19280;42.646;21.150;2022-11-15T02:02:12;62.53;;;36.17;;
32918;SDS011;19280;42.646;21.150;2022-11-15T02:04:46;66.78;;;37.63;;
32918;SDS011;19280;42.646;21.150;2022-11-15T02:07:13;63.88;;;35.13;;
32918;SDS011;19280;42.646;21.150;2022-11-15T02:09:40;70.68;;;37.20;;
32918;SDS011;19280;42.646;21.150;2022-11-15T02:12:06;66.03;;;35.13;;
32918;SDS011;19280;42.646;21.150;2022-11-15T02:14:34;55.97;;;31.40;;
32918;SDS011;19280;42.646;21.150;2022-11-15T02:24:33;56.55;;;30.73;;
32918;SDS011;19280;42.646;21.150;2022-11-15T02:29:40;55.90;;;30.42;;
32918;SDS011;19280;42.646;21.150;2022-11-15T02:42:09;56.33;;;33.80;;
32918;SDS011;19280;42.646;21.150;2022-11-15T02:44:57;58.13;;;33.28;;
32918;SDS011;19280;42.646;21.150;2022-11-15T02:47:24;53.00;;;29.30;;
32918;SDS011;19280;42.646;21.150;2022-11-15T02:49:52;62.90;;;31.95;;
32918;SDS011;19280;42.646;21.150;2022-11-15T02:52:19;63.15;;;36.55;;
32918;SDS011;19280;42.646;21.150;2022-11-15T02:54:55;67.78;;;36.80;;
32918;SDS011;19280;42.646;21.150;2022-11-15T02:57:36;58.63;;;34.42;;
32918;SDS011;19280;42.646;21.150;2022-11-15T03:00:09;68.18;;;36.55;;
32918;SDS011;19280;42.646;21.150;2022-11-15T03:05:48;62.17;;;32.67;;
32918;SDS011;19280;42.646;21.150;2022-11-15T03:15:46;68.13;;;36.25;;
32918;SDS011;19280;42.646;21.150;2022-11-15T03:18:16;65.15;;;35.30;;
32918;SDS011;19280;42.646;21.150;2022-11-15T03:20:44;62.45;;;35.67;;
32918;SDS011;19280;42.646;21.150;2022-11-15T03:23:10;60.92;;;35.05;;
32918;SDS011;19280;42.646;21.150;2022-11-15T03:25:40;56.30;;;33.22;;
32918;SDS011;19280;42.646;21.150;2022-11-15T03:28:07;63.92;;;33.70;;
32918;SDS011;19280;42.646;21.150;2022-11-15T03:30:34;63.97;;;32.45;;
32918;SDS011;19280;42.646;21.150;2022-11-15T03:33:02;60.28;;;32.65;;
32918;SDS011;19280;42.646;21.150;2022-11-15T03:35:30;58.10;;;34.17;;
32918;SDS011;19280;42.646;21.150;2022-11-15T03:37:59;58.13;;;34.53;;
32918;SDS011;19280;42.646;21.150;2022-11-15T03:40:30;69.80;;;35.42;;
32918;SDS011;19280;42.646;21.150;2022-11-15T03:45:31;60.95;;;32.58;;
32918;SDS011;19280;42.646;21.150;2022-11-15T03:48:05;57.10;;;32.38;;
32918;SDS011;19280;42.646;21.150;2022-11-15T03:50:33;60.83;;;34.63;;
32918;SDS011;19280;42.646;21.150;2022-11-15T03:52:59;56.42;;;32.88;;
32918;SDS011;19280;42.646;21.150;2022-11-15T03:55:26;67.05;;;34.83;;
32918;SDS011;19280;42.646;21.150;2022-11-15T03:57:56;58.13;;;34.55;;
32918;SDS011;19280;42.646;21.150;2022-11-15T04:00:23;64.07;;;35.45;;
32918;SDS011;19280;42.646;21.150;2022-11-15T04:02:49;61.22;;;34.28;;
32918;SDS011;19280;42.646;21.150;2022-11-15T04:05:15;64.13;;;34.70;;
32918;SDS011;19280;42.646;21.150;2022-11-15T04:07:41;63.80;;;34.15;;
32918;SDS011;19280;42.646;21.150;2022-11-15T04:10:08;60.75;;;34.17;;
32918;SDS011;19280;42.646;21.150;2022-11-15T04:12:36;65.55;;;36.60;;
32918;SDS011;19280;42.646;21.150;2022-11-15T04:15:06;60.97;;;33.83;;
32918;SDS011;19280;42.646;21.150;2022-11-15T04:17:46;58.78;;;33.88;;
32918;SDS011;19280;42.646;21.150;2022-11-15T04:20:14;58.47;;;33.15;;
32918;SDS011;19280;42.646;21.150;2022-11-15T04:23:00;67.57;;;36.47;;
32918;SDS011;19280;42.646;21.150;2022-11-15T04:25:45;61.95;;;34.63;;
32918;SDS011;19280;42.646;21.150;2022-11-15T04:28:12;64.32;;;35.00;;
32918;SDS011;19280;42.646;21.150;2022-11-15T04:30:38;57.25;;;32.70;;
32918;SDS011;19280;42.646;21.150;2022-11-15T04:33:04;53.35;;;33.28;;
32918;SDS011;19280;42.646;21.150;2022-11-15T04:35:30;64.78;;;34.08;;
32918;SDS011;19280;42.646;21.150;2022-11-15T04:37:57;53.47;;;33.17;;
32918;SDS011;19280;42.646;21.150;2022-11-15T04:40:23;63.80;;;33.75;;
32918;SDS011;19280;42.646;21.150;2022-11-15T04:42:49;63.28;;;36.15;;
32918;SDS011;19280;42.646;21.150;2022-11-15T04:45:15;63.00;;;35.10;;
32918;SDS011;19280;42.646;21.150;2022-11-15T04:47:45;67.40;;;37.20;;
32918;SDS011;19280;42.646;21.150;2022-11-15T04:50:11;62.70;;;35.60;;
32918;SDS011;19280;42.646;21.150;2022-11-15T04:52:41;75.25;;;38.10;;
32918;SDS011;19280;42.646;21.150;2022-11-15T04:55:09;74.78;;;38.25;;
32918;SDS011;19280;42.646;21.150;2022-11-15T04:57:35;64.82;;;38.72;;
32918;SDS011;19280;42.646;21.150;2022-11-15T05:00:03;71.55;;;39.20;;
32918;SDS011;19280;42.646;21.150;2022-11-15T05:02:29;73.00;;;39.90;;
32918;SDS011;19280;42.646;21.150;2022-11-15T05:05:15;69.68;;;40.50;;
32918;SDS011;19280;42.646;21.150;2022-11-15T05:07:41;82.30;;;42.45;;
32918;SDS011;19280;42.646;21.150;2022-11-15T05:10:07;76.72;;;41.83;;
32918;SDS011;19280;42.646;21.150;2022-11-15T05:12:34;84.72;;;43.95;;
32918;SDS011;19280;42.646;21.150;2022-11-15T05:15:00;80.50;;;42.83;;
32918;SDS011;19280;42.646;21.150;2022-11-15T05:17:26;75.60;;;42.80;;
32918;SDS011;19280;42.646;21.150;2022-11-15T05:19:52;87.18;;;47.05;;
32918;SDS011;19280;42.646;21.150;2022-11-15T05:22:18;84.72;;;45.05;;
32918;SDS011;19280;42.646;21.150;2022-11-15T05:24:44;92.50;;;48.42;;
32918;SDS011;19280;42.646;21.150;2022-11-15T05:27:10;79.63;;;46.78;;
32918;SDS011;19280;42.646;21.150;2022-11-15T05:29:37;78.80;;;45.33;;
32918;SDS011;19280;42.646;21.150;2022-11-15T05:32:03;76.70;;;44.53;;
32918;SDS011;19280;42.646;21.150;2022-11-15T05:34:29;77.20;;;43.45;;
32918;SDS011;19280;42.646;21.150;2022-11-15T05:36:55;75.85;;;44.17;;
32918;SDS011;19280;42.646;21.150;2022-11-15T05:39:21;78.95;;;45.88;;
32918;SDS011;19280;42.646;21.150;2022-11-15T05:41:48;74.10;;;42.92;;
32918;SDS011;19280;42.646;21.150;2022-11-15T05:44:17;73.32;;;43.25;;
32918;SDS011;19280;42.646;21.150;2022-11-15T05:46:44;72.20;;;41.42;;
32918;SDS011;19280;42.646;21.150;2022-11-15T05:49:12;80.05;;;42.08;;
32918;SDS011;19280;42.646;21.150;2022-11-15T05:51:39;74.55;;;39.78;;
32918;SDS011;19280;42.646;21.150;2022-11-15T05:54:05;71.85;;;40.72;;
32918;SDS011;19280;42.646;21.150;2022-11-15T05:56:31;66.10;;;39.53;;
32918;SDS011;19280;42.646;21.150;2022-11-15T05:58:58;85.43;;;41.17;;
32918;SDS011;19280;42.646;21.150;2022-11-15T06:01:24;68.75;;;38.35;;
32918;SDS011;19280;42.646;21.150;2022-11-15T06:03:51;70.15;;;39.13;;
32918;SDS011;19280;42.646;21.150;2022-11-15T06:06:17;60.55;;;35.67;;
32918;SDS011;19280;42.646;21.150;2022-11-15T06:08:43;54.92;;;33.92;;
32918;SDS011;19280;42.646;21.150;2022-11-15T06:11:09;53.85;;;31.65;;
32918;SDS011;19280;42.646;21.150;2022-11-15T06:13:35;53.47;;;33.20;;
32918;SDS011;19280;42.646;21.150;2022-11-15T06:16:02;64.30;;;35.72;;
32918;SDS011;19280;42.646;21.150;2022-11-15T06:18:28;59.80;;;31.42;;
32918;SDS011;19280;42.646;21.150;2022-11-15T06:21:00;60.13;;;32.97;;
32918;SDS011;19280;42.646;21.150;2022-11-15T06:23:27;59.33;;;33.00;;
32918;SDS011;19280;42.646;21.150;2022-11-15T06:25:53;61.97;;;34.17;;
32918;SDS011;19280;42.646;21.150;2022-11-15T06:28:19;70.13;;;36.10;;
32918;SDS011;19280;42.646;21.150;2022-11-15T06:30:45;71.72;;;36.55;;
32918;SDS011;19280;42.646;21.150;2022-11-15T06:33:11;72.47;;;37.80;;
32918;SDS011;19280;42.646;21.150;2022-11-15T06:35:37;69.15;;;39.33;;
32918;SDS011;19280;42.646;21.150;2022-11-15T06:38:08;70.15;;;35.83;;
32918;SDS011;19280;42.646;21.150;2022-11-15T06:40:37;59.65;;;33.92;;
32918;SDS011;19280;42.646;21.150;2022-11-15T06:43:04;58.67;;;31.63;;
32918;SDS011;19280;42.646;21.150;2022-11-15T06:45:30;56.90;;;31.02;;
32918;SDS011;19280;42.646;21.150;2022-11-15T06:47:56;53.92;;;30.98;;
32918;SDS011;19280;42.646;21.150;2022-11-15T06:50:23;58.25;;;31.35;;
32918;SDS011;19280;42.646;21.150;2022-11-15T06:52:49;66.32;;;32.50;;
32918;SDS011;19280;42.646;21.150;2022-11-15T06:55:15;51.60;;;30.85;;
32918;SDS011;19280;42.646;21.150;2022-11-15T06:57:48;54.97;;;30.20;;
32918;SDS011;19280;42.646;21.150;2022-11-15T07:00:14;53.92;;;31.10;;
32918;SDS011;19280;42.646;21.150;2022-11-15T07:02:41;56.10;;;31.80;;
32918;SDS011;19280;42.646;21.150;2022-11-15T07:05:07;53.92;;;30.38;;
32918;SDS011;19280;42.646;21.150;2022-11-15T07:07:33;42.88;;;27.83;;
32918;SDS011;19280;42.646;21.150;2022-11-15T07:09:59;48.10;;;28.90;;
32918;SDS011;19280;42.646;21.150;2022-11-15T07:12:25;42.75;;;24.88;;
32918;SDS011;19280;42.646;21.150;2022-11-15T07:14:51;38.88;;;25.17;;
32918;SDS011;19280;42.646;21.150;2022-11-15T07:17:17;39.90;;;25.58;;
32918;SDS011;19280;42.646;21.150;2022-11-15T07:19:43;44.53;;;26.27;;
32918;SDS011;19280;42.646;21.150;2022-11-15T07:22:09;46.88;;;27.48;;
32918;SDS011;19280;42.646;21.150;2022-11-15T07:24:37;37.17;;;25.40;;
32918;SDS011;19280;42.646;21.150;2022-11-15T07:27:03;43.05;;;26.92;;
32918;SDS011;19280;42.646;21.150;2022-11-15T07:29:29;41.50;;;25.98;;
32918;SDS011;19280;42.646;21.150;2022-11-15T07:31:55;49.03;;;29.45;;
32918;SDS011;19280;42.646;21.150;2022-11-15T07:34:21;52.30;;;30.40;;
32918;SDS011;19280;42.646;21.150;2022-11-15T07:36:48;39.80;;;24.60;;
32918;SDS011;19280;42.646;21.150;2022-11-15T07:39:14;40.95;;;25.88;;
32918;SDS011;19280;42.646;21.150;2022-11-15T07:41:40;46.10;;;24.67;;
32918;SDS011;19280;42.646;21.150;2022-11-15T07:44:08;36.72;;;23.83;;
32918;SDS011;19280;42.646;21.150;2022-11-15T07:46:34;43.10;;;26.45;;
32918;SDS011;19280;42.646;21.150;2022-11-15T07:49:00;42.95;;;25.15;;
32918;SDS011;19280;42.646;21.150;2022-11-15T07:51:26;34.42;;;23.13;;
32918;SDS011;19280;42.646;21.150;2022-11-15T07:53:52;39.85;;;24.02;;
32918;SDS011;19280;42.646;21.150;2022-11-15T07:56:18;42.00;;;24.98;;
32918;SDS011;19280;42.646;21.150;2022-11-15T07:58:45;48.00;;;27.02;;
32918;SDS011;19280;42.646;21.150;2022-11-15T08:01:12;46.88;;;26.67;;
32918;SDS011;19280;42.646;21.150;2022-11-15T08:03:38;40.67;;;24.67;;
32918;SDS011;19280;42.646;21.150;2022-11-15T08:06:04;54.80;;;26.55;;
32918;SDS011;19280;42.646;21.150;2022-11-15T08:08:30;48.42;;;26.48;;
32918;SDS011;19280;42.646;21.150;2022-11-15T08:10:57;51.25;;;26.92;;
32918;SDS011;19280;42.646;21.150;2022-11-15T08:13:23;46.58;;;27.13;;
32918;SDS011;19280;42.646;21.150;2022-11-15T08:15:49;47.85;;;25.55;;
32918;SDS011;19280;42.646;21.150;2022-11-15T08:18:15;44.30;;;25.85;;
32918;SDS011;19280;42.646;21.150;2022-11-15T08:20:42;50.95;;;26.70;;
32918;SDS011;19280;42.646;21.150;2022-11-15T08:23:09;50.38;;;27.67;;
32918;SDS011;19280;42.646;21.150;2022-11-15T08:25:37;44.28;;;27.98;;
32918;SDS011;19280;42.646;21.150;2022-11-15T08:28:04;50.03;;;29.30;;
32918;SDS011;19280;42.646;21.150;2022-11-15T08:30:31;50.85;;;27.80;;
32918;SDS011;19280;42.646;21.150;2022-11-15T08:33:01;42.08;;;24.88;;
32918;SDS011;19280;42.646;21.150;2022-11-15T08:35:27;40.00;;;25.70;;
32918;SDS011;19280;42.646;21.150;2022-11-15T08:37:53;39.13;;;24.92;;
32918;SDS011;19280;42.646;21.150;2022-11-15T08:40:20;44.40;;;26.67;;
32918;SDS011;19280;42.646;21.150;2022-11-15T08:42:46;44.58;;;26.20;;
32918;SDS011;19280;42.646;21.150;2022-11-15T08:45:13;48.28;;;26.48;;
32918;SDS011;19280;42.646;21.150;2022-11-15T08:47:39;39.85;;;25.95;;
32918;SDS011;19280;42.646;21.150;2022-11-15T08:50:05;48.15;;;26.25;;
32918;SDS011;19280;42.646;21.150;2022-11-15T08:52:31;55.33;;;26.45;;
32918;SDS011;19280;42.646;21.150;2022-11-15T08:54:57;54.78;;;27.83;;
32918;SDS011;19280;42.646;21.150;2022-11-15T08:57:23;51.75;;;26.08;;
32918;SDS011;19280;42.646;21.150;2022-11-15T08:59:50;57.15;;;28.80;;
32918;SDS011;19280;42.646;21.150;2022-11-15T09:02:16;55.53;;;30.23;;
32918;SDS011;19280;42.646;21.150;2022-11-15T09:04:42;48.60;;;28.00;;
32918;SDS011;19280;42.646;21.150;2022-11-15T09:07:09;52.00;;;25.65;;
32918;SDS011;19280;42.646;21.150;2022-11-15T09:09:35;45.97;;;25.52;;
32918;SDS011;19280;42.646;21.150;2022-11-15T09:12:01;42.55;;;25.90;;
32918;SDS011;19280;42.646;21.150;2022-11-15T09:14:27;50.75;;;25.42;;
32918;SDS011;19280;42.646;21.150;2022-11-15T09:16:53;46.38;;;24.10;;
32918;SDS011;19280;42.646;21.150;2022-11-15T09:19:20;45.35;;;24.63;;
32918;SDS011;19280;42.646;21.150;2022-11-15T09:21:46;42.47;;;23.50;;
32918;SDS011;19280;42.646;21.150;2022-11-15T09:24:12;43.28;;;23.88;;
32918;SDS011;19280;42.646;21.150;2022-11-15T09:26:39;42.33;;;23.02;;
32918;SDS011;19280;42.646;21.150;2022-11-15T09:29:05;45.10;;;24.08;;
32918;SDS011;19280;42.646;21.150;2022-11-15T09:31:31;46.13;;;22.75;;
32918;SDS011;19280;42.646;21.150;2022-11-15T09:33:57;44.92;;;24.23;;
32918;SDS011;19280;42.646;21.150;2022-11-15T09:36:23;51.13;;;27.05;;
32918;SDS011;19280;42.646;21.150;2022-11-15T09:38:49;45.25;;;27.50;;
32918;SDS011;19280;42.646;21.150;2022-11-15T09:43:55;42.88;;;25.38;;
32918;SDS011;19280;42.646;21.150;2022-11-15T09:49:00;40.90;;;23.45;;
32918;SDS011;19280;42.646;21.150;2022-11-15T09:51:30;40.88;;;24.95;;
32918;SDS011;19280;42.646;21.150;2022-11-15T09:54:10;45.30;;;27.08;;
32918;SDS011;19280;42.646;21.150;2022-11-15T09:56:38;55.17;;;29.33;;
32918;SDS011;19280;42.646;21.150;2022-11-15T10:02:01;47.28;;;28.15;;
32918;SDS011;19280;42.646;21.150;2022-11-15T10:04:29;53.42;;;28.67;;
32918;SDS011;19280;42.646;21.150;2022-11-15T10:06:58;47.20;;;24.65;;
32918;SDS011;19280;42.646;21.150;2022-11-15T10:09:30;39.05;;;23.95;;
32918;SDS011;19280;42.646;21.150;2022-11-15T10:11:57;42.17;;;23.92;;
32918;SDS011;19280;42.646;21.150;2022-11-15T10:14:24;36.72;;;20.60;;
32918;SDS011;19280;42.646;21.150;2022-11-15T10:24:43;28.70;;;19.02;;
32918;SDS011;19280;42.646;21.150;2022-11-15T10:27:11;28.85;;;19.10;;
32918;SDS011;19280;42.646;21.150;2022-11-15T10:29:40;33.88;;;20.27;;
32918;SDS011;19280;42.646;21.150;2022-11-15T10:32:08;35.30;;;21.95;;
32918;SDS011;19280;42.646;21.150;2022-11-15T10:34:35;36.85;;;23.48;;
32918;SDS011;19280;42.646;21.150;2022-11-15T10:37:02;35.13;;;21.52;;
32918;SDS011;19280;42.646;21.150;2022-11-15T10:39:29;37.05;;;22.23;;
32918;SDS011;19280;42.646;21.150;2022-11-15T10:41:55;49.92;;;24.17;;
32918;SDS011;19280;42.646;21.150;2022-11-15T10:49:22;34.80;;;21.15;;
32918;SDS011;19280;42.646;21.150;2022-11-15T10:56:51;38.80;;;21.33;;
32918;SDS011;19280;42.646;21.150;2022-11-15T10:59:24;34.20;;;22.17;;
32918;SDS011;19280;42.646;21.150;2022-11-15T11:01:51;36.90;;;23.40;;
32918;SDS011;19280;42.646;21.150;2022-11-15T11:04:17;40.90;;;23.70;;
32918;SDS011;19280;42.646;21.150;2022-11-15T11:06:51;38.58;;;24.58;;
32918;SDS011;19280;42.646;21.150;2022-11-15T11:09:27;38.90;;;25.55;;
32918;SDS011;19280;42.646;21.150;2022-11-15T11:11:54;47.67;;;26.25;;
32918;SDS011;19280;42.646;21.150;2022-11-15T11:14:27;42.00;;;26.70;;
32918;SDS011;19280;42.646;21.150;2022-11-15T11:19:46;39.35;;;23.67;;
32918;SDS011;19280;42.646;21.150;2022-11-15T11:22:28;46.25;;;24.65;;
32918;SDS011;19280;42.646;21.150;2022-11-15T11:33:10;45.55;;;22.40;;
32918;SDS011;19280;42.646;21.150;2022-11-15T11:43:40;37.67;;;23.58;;
32918;SDS011;19280;42.646;21.150;2022-11-15T11:46:17;36.30;;;22.42;;
32918;SDS011;19280;42.646;21.150;2022-11-15T11:48:50;43.88;;;23.52;;
32918;SDS011;19280;42.646;21.150;2022-11-15T11:51:21;35.17;;;23.17;;
32918;SDS011;19280;42.646;21.150;2022-11-15T11:53:57;36.20;;;23.25;;
32918;SDS011;19280;42.646;21.150;2022-11-15T11:56:28;41.22;;;24.83;;
32918;SDS011;19280;42.646;21.150;2022-11-15T11:58:57;46.40;;;24.10;;
32918;SDS011;19280;42.646;21.150;2022-11-15T12:01:26;51.05;;;27.67;;
32918;SDS011;19280;42.646;21.150;2022-11-15T12:03:56;46.50;;;26.48;;
32918;SDS011;19280;42.646;21.150;2022-11-15T12:06:37;48.78;;;28.33;;
32918;SDS011;19280;42.646;21.150;2022-11-15T12:09:12;51.33;;;27.75;;
32918;SDS011;19280;42.646;21.150;2022-11-15T12:16:53;41.85;;;27.60;;
32918;SDS011;19280;42.646;21.150;2022-11-15T12:19:19;44.85;;;24.77;;
32918;SDS011;19280;42.646;21.150;2022-11-15T12:31:51;50.70;;;27.58;;
32918;SDS011;19280;42.646;21.150;2022-11-15T12:36:48;48.15;;;26.23;;
32918;SDS011;19280;42.646;21.150;2022-11-15T12:39:15;48.63;;;26.50;;
32918;SDS011;19280;42.646;21.150;2022-11-15T12:41:42;53.05;;;26.50;;
32918;SDS011;19280;42.646;21.150;2022-11-15T12:44:12;47.03;;;25.77;;
32918;SDS011;19280;42.646;21.150;2022-11-15T13:04:43;55.42;;;29.55;;
32918;SDS011;19280;42.646;21.150;2022-11-15T13:07:09;59.70;;;28.95;;
32918;SDS011;19280;42.646;21.150;2022-11-15T13:09:55;62.83;;;30.38;;
32918;SDS011;19280;42.646;21.150;2022-11-15T13:14:51;75.32;;;35.70;;
32918;SDS011;19280;42.646;21.150;2022-11-15T13:17:31;70.43;;;33.05;;
32918;SDS011;19280;42.646;21.150;2022-11-15T13:20:00;56.70;;;28.27;;
32918;SDS011;19280;42.646;21.150;2022-11-15T13:22:32;72.20;;;30.48;;
32918;SDS011;19280;42.646;21.150;2022-11-15T13:25:21;64.80;;;30.73;;
32918;SDS011;19280;42.646;21.150;2022-11-15T13:27:49;74.95;;;29.10;;
32918;SDS011;19280;42.646;21.150;2022-11-15T13:30:19;67.40;;;29.80;;
32918;SDS011;19280;42.646;21.150;2022-11-15T13:32:46;85.10;;;30.02;;
32918;SDS011;19280;42.646;21.150;2022-11-15T13:35:22;79.88;;;33.80;;
32918;SDS011;19280;42.646;21.150;2022-11-15T13:37:49;71.60;;;33.00;;
32918;SDS011;19280;42.646;21.150;2022-11-15T13:40:25;81.55;;;34.75;;
32918;SDS011;19280;42.646;21.150;2022-11-15T13:42:52;78.63;;;35.20;;
32918;SDS011;19280;42.646;21.150;2022-11-15T13:45:19;86.75;;;38.22;;
32918;SDS011;19280;42.646;21.150;2022-11-15T13:47:50;83.63;;;37.30;;
32918;SDS011;19280;42.646;21.150;2022-11-15T13:50:17;90.82;;;42.08;;
32918;SDS011;19280;42.646;21.150;2022-11-15T13:52:43;82.03;;;41.97;;
32918;SDS011;19280;42.646;21.150;2022-11-15T13:55:12;72.55;;;31.10;;
32918;SDS011;19280;42.646;21.150;2022-11-15T14:00:06;70.25;;;29.90;;
32918;SDS011;19280;42.646;21.150;2022-11-15T14:02:47;57.65;;;27.70;;
32918;SDS011;19280;42.646;21.150;2022-11-15T14:05:15;64.75;;;31.13;;
32918;SDS011;19280;42.646;21.150;2022-11-15T14:07:52;63.92;;;30.10;;
32918;SDS011;19280;42.646;21.150;2022-11-15T14:10:26;68.40;;;29.50;;
32918;SDS011;19280;42.646;21.150;2022-11-15T14:12:53;63.35;;;29.13;;
32918;SDS011;19280;42.646;21.150;2022-11-15T14:15:30;66.57;;;34.25;;
32918;SDS011;19280;42.646;21.150;2022-11-15T14:17:56;64.93;;;34.50;;
32918;SDS011;19280;42.646;21.150;2022-11-15T14:20:26;61.95;;;33.55;;
32918;SDS011;19280;42.646;21.150;2022-11-15T14:22:56;52.85;;;29.30;;
32918;SDS011;19280;42.646;21.150;2022-11-15T14:25:28;51.72;;;28.35;;
32918;SDS011;19280;42.646;21.150;2022-11-15T14:30:42;58.03;;;35.00;;
32918;SDS011;19280;42.646;21.150;2022-11-15T14:35:46;53.30;;;31.58;;
32918;SDS011;19280;42.646;21.150;2022-11-15T14:38:12;61.38;;;32.05;;
32918;SDS011;19280;42.646;21.150;2022-11-15T14:40:39;77.03;;;49.05;;
32918;SDS011;19280;42.646;21.150;2022-11-15T14:43:07;68.75;;;36.13;;
32918;SDS011;19280;42.646;21.150;2022-11-15T14:45:33;70.65;;;33.58;;
32918;SDS011;19280;42.646;21.150;2022-11-15T14:48:00;70.13;;;34.95;;
32918;SDS011;19280;42.646;21.150;2022-11-15T14:50:26;63.95;;;37.15;;
32918;SDS011;19280;42.646;21.150;2022-11-15T14:52:53;68.72;;;34.85;;
32918;SDS011;19280;42.646;21.150;2022-11-15T14:55:24;70.85;;;34.33;;
32918;SDS011;19280;42.646;21.150;2022-11-15T14:57:50;73.70;;;39.08;;
32918;SDS011;19280;42.646;21.150;2022-11-15T15:00:19;80.18;;;45.88;;
32918;SDS011;19280;42.646;21.150;2022-11-15T15:02:46;80.35;;;43.13;;
32918;SDS011;19280;42.646;21.150;2022-11-15T15:05:20;85.35;;;40.97;;
32918;SDS011;19280;42.646;21.150;2022-11-15T15:07:46;84.07;;;42.42;;
32918;SDS011;19280;42.646;21.150;2022-11-15T15:10:13;85.65;;;43.28;;
32918;SDS011;19280;42.646;21.150;2022-11-15T15:12:40;88.78;;;45.92;;
32918;SDS011;19280;42.646;21.150;2022-11-15T15:15:09;85.70;;;46.05;;
32918;SDS011;19280;42.646;21.150;2022-11-15T15:20:04;84.53;;;46.10;;
32918;SDS011;19280;42.646;21.150;2022-11-15T15:22:30;101.10;;;47.75;;
32918;SDS011;19280;42.646;21.150;2022-11-15T15:24:57;110.70;;;55.42;;
32918;SDS011;19280;42.646;21.150;2022-11-15T15:27:23;117.93;;;58.08;;
32918;SDS011;19280;42.646;21.150;2022-11-15T15:29:49;105.53;;;55.83;;
32918;SDS011;19280;42.646;21.150;2022-11-15T15:32:16;112.88;;;57.55;;
32918;SDS011;19280;42.646;21.150;2022-11-15T15:34:42;122.18;;;58.15;;
32918;SDS011;19280;42.646;21.150;2022-11-15T15:39:50;107.22;;;54.10;;
32918;SDS011;19280;42.646;21.150;2022-11-15T15:42:17;112.82;;;53.85;;
32918;SDS011;19280;42.646;21.150;2022-11-15T15:44:43;146.43;;;69.57;;
32918;SDS011;19280;42.646;21.150;2022-11-15T15:47:16;141.43;;;69.88;;
32918;SDS011;19280;42.646;21.150;2022-11-15T15:49:43;134.65;;;69.30;;
32918;SDS011;19280;42.646;21.150;2022-11-15T15:52:09;141.98;;;72.22;;
32918;SDS011;19280;42.646;21.150;2022-11-15T15:54:36;120.95;;;58.53;;
32918;SDS011;19280;42.646;21.150;2022-11-15T15:57:03;143.15;;;64.63;;
32918;SDS011;19280;42.646;21.150;2022-11-15T15:59:30;126.32;;;60.28;;
32918;SDS011;19280;42.646;21.150;2022-11-15T16:01:56;137.30;;;63.10;;
32918;SDS011;19280;42.646;21.150;2022-11-15T16:04:22;214.85;;;100.80;;
32918;SDS011;19280;42.646;21.150;2022-11-15T16:06:48;216.57;;;103.70;;
32918;SDS011;19280;42.646;21.150;2022-11-15T16:09:18;191.65;;;90.50;;
32918;SDS011;19280;42.646;21.150;2022-11-15T16:12:04;190.77;;;87.55;;
32918;SDS011;19280;42.646;21.150;2022-11-15T16:14:30;169.20;;;76.80;;
32918;SDS011;19280;42.646;21.150;2022-11-15T16:16:57;264.05;;;130.80;;
32918;SDS011;19280;42.646;21.150;2022-11-15T16:19:23;231.45;;;97.57;;
32918;SDS011;19280;42.646;21.150;2022-11-15T16:21:49;158.85;;;72.57;;
32918;SDS011;19280;42.646;21.150;2022-11-15T16:24:18;166.25;;;73.72;;
32918;SDS011;19280;42.646;21.150;2022-11-15T16:26:44;195.85;;;88.60;;